sensor_id;sensor_type;location;lat;lon;timestamp;P1;durP1;ratioP1;P2;durP2;ratioP2
62110;SDS011;48102;47.526;19.072;2023-10-08T06:21:08;5.90;;;1.58;;
62110;SDS011;48102;47.526;19.072;2023-10-08T06:24:12;3.08;;;1.25;;
62110;SDS011;48102;47.526;19.072;2023-10-08T06:27:19;3.83;;;1.30;;
62110;SDS011;48102;47.526;19.072;2023-10-08T06:30:23;2.97;;;1.77;;
62110;SDS011;48102;47.526;19.072;2023-10-08T06:33:31;4.95;;;1.83;;
62110;SDS011;48102;47.526;19.072;2023-10-08T06:36:36;3.55;;;1.67;;
62110;SDS011;48102;47.526;19.072;2023-10-08T06:39:38;6.72;;;2.03;;
62110;SDS011;48102;47.526;19.072;2023-10-08T06:42:51;8.10;;;2.15;;
62110;SDS011;48102;47.526;19.072;2023-10-08T06:45:54;3.53;;;1.55;;
62110;SDS011;48102;47.526;19.072;2023-10-08T06:49:02;3.87;;;1.50;;
62110;SDS011;48102;47.526;19.072;2023-10-08T06:52:12;3.55;;;1.62;;
62110;SDS011;48102;47.526;19.072;2023-10-08T06:55:16;3.70;;;2.03;;
62110;SDS011;48102;47.526;19.072;2023-10-08T06:58:20;5.60;;;1.30;;
62110;SDS011;48102;47.526;19.072;2023-10-08T07:01:23;5.47;;;2.10;;
62110;SDS011;48102;47.526;19.072;2023-10-08T07:04:41;4.43;;;1.60;;
62110;SDS011;48102;47.526;19.072;2023-10-08T07:07:47;3.75;;;1.45;;
62110;SDS011;48102;47.526;19.072;2023-10-08T07:10:50;5.75;;;1.92;;
62110;SDS011;48102;47.526;19.072;2023-10-08T07:13:54;4.72;;;1.65;;
62110;SDS011;48102;47.526;19.072;2023-10-08T07:16:59;4.78;;;1.85;;
62110;SDS011;48102;47.526;19.072;2023-10-08T07:20:04;5.40;;;1.75;;
62110;SDS011;48102;47.526;19.072;2023-10-08T07:23:14;4.62;;;1.85;;
62110;SDS011;48102;47.526;19.072;2023-10-08T07:26:28;3.62;;;1.55;;
62110;SDS011;48102;47.526;19.072;2023-10-08T07:29:49;5.47;;;1.83;;
62110;SDS011;48102;47.526;19.072;2023-10-08T07:32:52;5.20;;;1.83;;
62110;SDS011;48102;47.526;19.072;2023-10-08T07:36:00;6.12;;;2.10;;
62110;SDS011;48102;47.526;19.072;2023-10-08T07:39:17;4.93;;;2.75;;
62110;SDS011;48102;47.526;19.072;2023-10-08T07:42:27;5.80;;;1.92;;
62110;SDS011;48102;47.526;19.072;2023-10-08T07:45:30;4.85;;;2.30;;
62110;SDS011;48102;47.526;19.072;2023-10-08T07:48:38;6.20;;;1.87;;
62110;SDS011;48102;47.526;19.072;2023-10-08T07:51:47;5.57;;;1.67;;
62110;SDS011;48102;47.526;19.072;2023-10-08T07:54:55;5.10;;;1.90;;
62110;SDS011;48102;47.526;19.072;2023-10-08T07:57:58;6.05;;;2.05;;
62110;SDS011;48102;47.526;19.072;2023-10-08T08:01:10;4.60;;;2.00;;
62110;SDS011;48102;47.526;19.072;2023-10-08T08:04:16;7.40;;;1.90;;
62110;SDS011;48102;47.526;19.072;2023-10-08T08:07:25;6.50;;;2.90;;
62110;SDS011;48102;47.526;19.072;2023-10-08T08:10:29;5.35;;;1.83;;
62110;SDS011;48102;47.526;19.072;2023-10-08T08:13:32;5.15;;;1.90;;
62110;SDS011;48102;47.526;19.072;2023-10-08T08:16:37;5.30;;;2.00;;
62110;SDS011;48102;47.526;19.072;2023-10-08T08:19:41;5.25;;;1.90;;
62110;SDS011;48102;47.526;19.072;2023-10-08T08:22:46;7.03;;;1.60;;
62110;SDS011;48102;47.526;19.072;2023-10-08T08:25:52;3.45;;;1.65;;
62110;SDS011;48102;47.526;19.072;2023-10-08T08:29:09;3.30;;;1.70;;
62110;SDS011;48102;47.526;19.072;2023-10-08T08:32:17;2.83;;;1.65;;
62110;SDS011;48102;47.526;19.072;2023-10-08T08:35:24;5.32;;;2.20;;
62110;SDS011;48102;47.526;19.072;2023-10-08T08:38:27;5.65;;;1.87;;
62110;SDS011;48102;47.526;19.072;2023-10-08T08:41:38;3.53;;;1.30;;
62110;SDS011;48102;47.526;19.072;2023-10-08T08:44:42;5.93;;;1.60;;
62110;SDS011;48102;47.526;19.072;2023-10-08T08:47:48;10.80;;;2.08;;
62110;SDS011;48102;47.526;19.072;2023-10-08T08:50:52;4.03;;;1.67;;
62110;SDS011;48102;47.526;19.072;2023-10-08T08:53:56;6.75;;;1.90;;
62110;SDS011;48102;47.526;19.072;2023-10-08T08:57:03;5.25;;;1.80;;
62110;SDS011;48102;47.526;19.072;2023-10-08T09:00:07;6.47;;;2.03;;
62110;SDS011;48102;47.526;19.072;2023-10-08T09:03:14;5.55;;;1.92;;
62110;SDS011;48102;47.526;19.072;2023-10-08T09:06:18;5.20;;;1.85;;
62110;SDS011;48102;47.526;19.072;2023-10-08T09:09:21;5.50;;;2.28;;
62110;SDS011;48102;47.526;19.072;2023-10-08T09:12:28;4.72;;;1.80;;
62110;SDS011;48102;47.526;19.072;2023-10-08T09:18:36;8.55;;;1.62;;
62110;SDS011;48102;47.526;19.072;2023-10-08T09:21:39;4.15;;;1.40;;
62110;SDS011;48102;47.526;19.072;2023-10-08T09:24:42;3.72;;;1.40;;
62110;SDS011;48102;47.526;19.072;2023-10-08T09:27:45;5.32;;;1.60;;
62110;SDS011;48102;47.526;19.072;2023-10-08T09:30:57;8.63;;;1.67;;
62110;SDS011;48102;47.526;19.072;2023-10-08T09:34:02;13.93;;;2.03;;
62110;SDS011;48102;47.526;19.072;2023-10-08T09:37:06;7.70;;;1.60;;
62110;SDS011;48102;47.526;19.072;2023-10-08T09:40:11;9.48;;;2.22;;
62110;SDS011;48102;47.526;19.072;2023-10-08T09:43:14;10.52;;;1.83;;
62110;SDS011;48102;47.526;19.072;2023-10-08T09:46:19;2.17;;;1.58;;
62110;SDS011;48102;47.526;19.072;2023-10-08T09:49:33;9.20;;;2.05;;
62110;SDS011;48102;47.526;19.072;2023-10-08T09:55:59;6.85;;;1.62;;
62110;SDS011;48102;47.526;19.072;2023-10-08T09:59:07;3.08;;;1.75;;
62110;SDS011;48102;47.526;19.072;2023-10-08T10:02:13;3.65;;;1.70;;
62110;SDS011;48102;47.526;19.072;2023-10-08T10:05:20;5.87;;;1.80;;
62110;SDS011;48102;47.526;19.072;2023-10-08T10:08:24;4.87;;;1.60;;
62110;SDS011;48102;47.526;19.072;2023-10-08T10:11:29;5.65;;;1.77;;
62110;SDS011;48102;47.526;19.072;2023-10-08T10:14:40;4.37;;;2.08;;
62110;SDS011;48102;47.526;19.072;2023-10-08T10:17:46;3.60;;;1.70;;
62110;SDS011;48102;47.526;19.072;2023-10-08T10:20:53;5.57;;;1.70;;
62110;SDS011;48102;47.526;19.072;2023-10-08T10:24:04;6.07;;;1.70;;
62110;SDS011;48102;47.526;19.072;2023-10-08T10:27:23;6.53;;;1.60;;
62110;SDS011;48102;47.526;19.072;2023-10-08T10:30:27;3.40;;;1.17;;
62110;SDS011;48102;47.526;19.072;2023-10-08T10:33:30;2.42;;;1.02;;
62110;SDS011;48102;47.526;19.072;2023-10-08T10:36:36;3.92;;;1.00;;
62110;SDS011;48102;47.526;19.072;2023-10-08T10:39:39;1.75;;;1.12;;
62110;SDS011;48102;47.526;19.072;2023-10-08T10:42:47;2.55;;;0.98;;
62110;SDS011;48102;47.526;19.072;2023-10-08T10:45:55;1.37;;;0.60;;
62110;SDS011;48102;47.526;19.072;2023-10-08T10:49:00;1.33;;;0.45;;
62110;SDS011;48102;47.526;19.072;2023-10-08T10:52:24;1.10;;;0.40;;
62110;SDS011;48102;47.526;19.072;2023-10-08T10:55:49;1.42;;;0.20;;
62110;SDS011;48102;47.526;19.072;2023-10-08T10:59:05;0.30;;;0.20;;
62110;SDS011;48102;47.526;19.072;2023-10-08T11:02:21;0.37;;;0.30;;
62110;SDS011;48102;47.526;19.072;2023-10-08T11:05:33;0.47;;;0.15;;
62110;SDS011;48102;47.526;19.072;2023-10-08T11:08:40;0.28;;;0.20;;
62110;SDS011;48102;47.526;19.072;2023-10-08T11:11:48;0.20;;;0.20;;
62110;SDS011;48102;47.526;19.072;2023-10-08T11:14:57;0.40;;;0.28;;
62110;SDS011;48102;47.526;19.072;2023-10-08T11:18:01;0.40;;;0.35;;
62110;SDS011;48102;47.526;19.072;2023-10-08T11:21:10;3.10;;;0.47;;
62110;SDS011;48102;47.526;19.072;2023-10-08T11:24:27;0.40;;;0.20;;
62110;SDS011;48102;47.526;19.072;2023-10-08T11:27:36;1.12;;;0.20;;
62110;SDS011;48102;47.526;19.072;2023-10-08T11:30:40;0.77;;;0.32;;
62110;SDS011;48102;47.526;19.072;2023-10-08T11:33:45;0.35;;;0.10;;
62110;SDS011;48102;47.526;19.072;2023-10-08T11:36:58;0.35;;;0.10;;
62110;SDS011;48102;47.526;19.072;2023-10-08T11:40:02;0.13;;;0.05;;
62110;SDS011;48102;47.526;19.072;2023-10-08T11:43:15;0.10;;;0.10;;
62110;SDS011;48102;47.526;19.072;2023-10-08T11:46:25;1.87;;;0.20;;
62110;SDS011;48102;47.526;19.072;2023-10-08T11:49:31;0.40;;;0.13;;
62110;SDS011;48102;47.526;19.072;2023-10-08T11:52:39;1.62;;;0.13;;
62110;SDS011;48102;47.526;19.072;2023-10-08T11:55:44;0.28;;;0.20;;
62110;SDS011;48102;47.526;19.072;2023-10-08T11:58:51;2.62;;;0.37;;
62110;SDS011;48102;47.526;19.072;2023-10-08T12:01:54;3.40;;;0.37;;
62110;SDS011;48102;47.526;19.072;2023-10-08T12:04:59;0.65;;;0.22;;
62110;SDS011;48102;47.526;19.072;2023-10-08T12:08:02;0.60;;;0.20;;
62110;SDS011;48102;47.526;19.072;2023-10-08T12:11:07;2.53;;;0.20;;
62110;SDS011;48102;47.526;19.072;2023-10-08T12:14:14;1.15;;;0.17;;
62110;SDS011;48102;47.526;19.072;2023-10-08T12:17:17;1.25;;;0.13;;
